Time;durP1;ratioP1;P1;durP2;ratioP2;P2;SDS_P1;SDS_P2;PMS_P1;PMS_P2;Temp;Humidity;BMP_temperature;BMP_pressure;BME280_temperature;BME280_humidity;BME280_pressure;Samples;Min_cycle;Max_cycle;Signal;HPM_P1;HPM_P2
2024/01/08 00:01:00;;;;;;;3.93;2.40;;;-0.70;70.30;;;0.94;54.73;97999.34;5070732;28;20040;-55
2024/01/08 00:03:29;;;;;;;4.77;2.83;;;-0.70;68.30;;;0.90;54.15;98000.47;5070012;28;20446;-53
2024/01/08 00:05:57;;;;;;;4.70;3.00;;;-0.70;68.10;;;0.90;54.56;98003.09;5071112;28;20053;-53
2024/01/08 00:08:25;;;;;;;4.57;3.43;;;-0.60;67.60;;;0.94;55.14;97999.34;5071453;28;20518;-50
2024/01/08 00:10:53;;;;;;;7.73;4.03;;;-0.50;67.90;;;0.98;55.13;98000.03;5069781;28;20052;-53
2024/01/08 00:13:21;;;;;;;5.17;2.83;;;-0.60;68.30;;;0.93;54.79;97994.19;5070767;28;20044;-54
2024/01/08 00:15:49;;;;;;;3.93;3.23;;;-0.70;68.20;;;0.92;54.02;97998.59;5071075;28;20044;-50
2024/01/08 00:18:18;;;;;;;6.20;4.07;;;-0.70;66.80;;;0.90;54.47;97999.66;5069466;28;20056;-51
2024/01/08 00:20:46;;;;;;;6.10;3.77;;;-0.70;67.80;;;0.92;54.92;97992.53;5070524;28;20521;-50
2024/01/08 00:23:14;;;;;;;4.90;3.70;;;-0.60;68.10;;;0.90;54.59;98000.47;5086233;28;20055;-52
2024/01/08 00:25:42;;;;;;;4.70;3.70;;;-0.70;67.30;;;0.89;54.24;98004.06;5070646;28;20044;-57
2024/01/08 00:28:10;;;;;;;5.30;3.37;;;-0.70;68.60;;;0.91;53.86;98002.19;5071100;28;20036;-52
2024/01/08 00:30:37;;;;;;;5.03;3.00;;;-0.70;67.00;;;0.89;54.41;98005.81;5077981;28;20059;-52
2024/01/08 00:33:05;;;;;;;5.87;3.13;;;-0.60;66.70;;;0.91;54.32;98011.81;5070981;28;20040;-54
2024/01/08 00:35:33;;;;;;;6.17;3.17;;;-0.60;67.90;;;0.91;53.74;98007.44;5070690;28;20419;-53
2024/01/08 00:38:01;;;;;;;7.87;3.90;;;-0.60;66.70;;;0.90;53.57;98004.88;5071161;28;20412;-52
2024/01/08 00:40:29;;;;;;;6.23;3.70;;;-0.60;67.10;;;0.91;53.74;98004.81;5070447;28;20415;-54
2024/01/08 00:42:57;;;;;;;7.87;4.23;;;-0.50;67.50;;;0.97;53.64;98000.97;5070470;28;20040;-52
2024/01/08 00:45:26;;;;;;;4.57;3.33;;;-0.50;67.10;;;1.01;54.55;98005.09;5069048;28;20044;-54
2024/01/08 00:47:53;;;;;;;5.30;2.83;;;-0.50;67.50;;;0.96;53.82;98004.50;5070328;28;20074;-54
2024/01/08 00:50:22;;;;;;;8.67;5.10;;;-0.60;66.00;;;0.97;53.54;98007.06;5070329;28;20052;-53
2024/01/08 00:52:49;;;;;;;9.33;5.00;;;-0.60;65.80;;;0.98;53.84;98010.50;5070649;28;20504;-52
2024/01/08 00:55:18;;;;;;;15.30;8.63;;;-0.60;67.00;;;1.02;53.75;98006.75;5069616;28;20051;-53
2024/01/08 00:57:46;;;;;;;16.57;9.37;;;-0.50;67.50;;;1.06;54.35;98003.00;5070760;28;20040;-52
2024/01/08 01:00:14;;;;;;;12.90;7.33;;;-0.40;66.70;;;1.07;54.08;98012.59;5070697;28;20048;-51
2024/01/08 01:02:42;;;;;;;14.87;7.53;;;-0.50;67.20;;;1.12;53.78;98009.66;5069950;28;20152;-53
2024/01/08 01:05:10;;;;;;;13.47;7.27;;;-0.40;67.40;;;1.14;53.47;98011.28;5070979;28;20049;-50
2024/01/08 01:07:38;;;;;;;14.40;7.33;;;-0.40;66.10;;;1.12;53.18;98004.41;5070796;28;20045;-53
2024/01/08 01:10:06;;;;;;;10.83;5.60;;;-0.40;66.20;;;1.11;53.53;98006.22;5068915;28;20228;-51
2024/01/08 01:12:34;;;;;;;14.33;7.77;;;-0.40;66.40;;;1.11;53.77;98008.00;5070638;28;20827;-54
2024/01/08 01:15:02;;;;;;;12.20;6.17;;;-0.40;65.80;;;1.12;53.54;98007.03;5070576;28;20055;-53
2024/01/08 01:17:30;;;;;;;7.70;5.77;;;-0.40;65.50;;;1.13;53.60;98009.59;5071007;28;20041;-51
2024/01/08 01:19:58;;;;;;;11.70;6.80;;;-0.30;67.70;;;1.23;53.90;98007.25;5069699;28;20067;-53
2024/01/08 01:22:26;;;;;;;14.53;7.83;;;-0.30;67.60;;;1.27;53.13;98005.28;5070467;28;20040;-54
2024/01/08 01:24:54;;;;;;;7.77;5.67;;;-0.30;66.30;;;1.26;53.63;98016.69;5070241;28;20047;-52
2024/01/08 01:27:22;;;;;;;8.43;5.73;;;-0.30;66.00;;;1.26;53.54;98019.31;5069005;28;20040;-53
2024/01/08 01:29:50;;;;;;;7.20;5.47;;;-0.30;66.60;;;1.25;53.60;98023.72;5070018;28;20043;-53
2024/01/08 01:32:18;;;;;;;7.90;5.33;;;-0.30;66.40;;;1.24;53.18;98018.56;5070284;28;20056;-54
2024/01/08 01:34:45;;;;;;;6.20;4.17;;;-0.30;65.50;;;1.17;53.58;98031.22;5070129;28;20048;-50
2024/01/08 01:37:13;;;;;;;7.77;4.43;;;-0.40;65.70;;;1.14;53.60;98024.41;5070513;28;20043;-54
2024/01/08 01:39:41;;;;;;;6.27;4.47;;;-0.30;66.20;;;1.18;53.63;98025.03;5068570;28;20081;-51
2024/01/08 01:42:10;;;;;;;6.97;4.77;;;-0.30;66.10;;;1.17;53.54;98023.34;5068563;28;20052;-50
2024/01/08 01:44:37;;;;;;;6.43;4.47;;;-0.30;66.50;;;1.19;53.94;98026.72;5070221;28;20063;-53
2024/01/08 01:47:06;;;;;;;6.17;4.03;;;-0.30;67.60;;;1.18;53.45;98028.50;5067972;28;20036;-54
2024/01/08 01:49:34;;;;;;;4.53;3.60;;;-0.30;65.70;;;1.16;53.71;98026.91;5069271;28;20048;-53
2024/01/08 01:52:02;;;;;;;5.50;3.90;;;-0.40;67.40;;;1.22;53.41;98028.31;5068162;28;20045;-55
2024/01/08 01:54:30;;;;;;;12.83;5.03;;;-0.30;67.60;;;1.22;53.29;98026.53;5068969;28;20040;-54
2024/01/08 01:57:03;;;;;;;8.47;4.83;;;-0.30;66.00;;;1.20;53.31;98028.41;5068945;28;20049;-50
2024/01/08 01:59:33;;;;;;;5.97;4.50;;;-0.30;66.30;;;1.21;53.36;98024.03;5072267;28;20059;-54
2024/01/08 02:02:03;;;;;;;6.57;4.23;;;-0.30;66.60;;;1.28;54.10;98026.16;5073624;28;20484;-53
2024/01/08 02:04:32;;;;;;;6.77;4.60;;;-0.20;67.90;;;1.33;53.13;98018.00;5074100;28;20037;-54
2024/01/08 02:07:02;;;;;;;6.47;3.80;;;-0.30;64.80;;;1.31;53.11;98010.22;5074048;28;20357;-53
2024/01/08 02:09:30;;;;;;;5.40;3.70;;;-0.30;65.90;;;1.24;52.88;98011.56;5072184;28;20048;-53
2024/01/08 02:11:58;;;;;;;4.80;3.20;;;-0.30;65.60;;;1.20;52.76;98006.56;5073405;28;20099;-52
2024/01/08 02:14:26;;;;;;;5.10;3.60;;;-0.30;64.80;;;1.18;53.64;98007.53;5073452;28;20518;-55
2024/01/08 02:16:53;;;;;;;5.87;3.50;;;-0.40;66.20;;;1.24;53.68;98013.31;5073080;28;20495;-51
2024/01/08 02:19:21;;;;;;;6.20;3.70;;;-0.30;67.30;;;1.27;52.83;98006.09;5073311;28;20044;-54
2024/01/08 02:21:49;;;;;;;5.87;3.80;;;-0.30;66.10;;;1.24;53.51;97998.44;5073210;28;20075;-52
2024/01/08 02:24:17;;;;;;;5.70;3.97;;;-0.20;66.60;;;1.24;53.72;98003.69;5065513;28;20049;-53
2024/01/08 02:26:45;;;;;;;7.60;4.47;;;-0.20;66.70;;;1.26;53.53;98004.44;5073139;28;20420;-50
2024/01/08 02:29:14;;;;;;;5.97;4.10;;;-0.20;67.50;;;1.36;54.03;97996.84;5073207;28;20036;-50
2024/01/08 02:31:42;;;;;;;5.77;3.60;;;-0.20;67.60;;;1.38;53.55;97998.44;5071948;28;20047;-51
2024/01/08 02:34:10;;;;;;;7.27;3.70;;;-0.20;66.70;;;1.38;53.83;97995.81;5072694;28;20040;-54
2024/01/08 02:36:37;;;;;;;4.80;3.20;;;-0.10;67.00;;;1.40;53.79;97992.22;5073098;28;20071;-52
2024/01/08 02:39:05;;;;;;;4.33;3.00;;;-0.20;66.90;;;1.47;53.34;97998.78;5073068;28;20052;-54
2024/01/08 02:41:33;;;;;;;6.40;3.37;;;-0.20;68.50;;;1.44;53.08;97999.81;5071147;28;20048;-50
2024/01/08 02:44:01;;;;;;;4.03;3.07;;;-0.10;67.10;;;1.48;53.54;97998.69;5072081;28;20055;-52
2024/01/08 02:46:30;;;;;;;4.57;3.07;;;-0.10;68.10;;;1.48;53.68;98001.31;5072711;28;20519;-51
2024/01/08 02:48:59;;;;;;;5.07;3.33;;;-0.20;66.80;;;1.51;53.58;97993.28;5072645;28;20044;-52
2024/01/08 02:51:27;;;;;;;4.93;3.10;;;-0.20;67.70;;;1.54;53.35;98000.94;5071601;28;20051;-53
2024/01/08 02:53:54;;;;;;;4.87;3.00;;;-0.20;68.80;;;1.60;53.39;98007.56;5072220;28;20037;-54
2024/01/08 02:56:23;;;;;;;4.53;3.67;;;-0.20;69.40;;;1.61;53.24;98001.41;5072584;28;20046;-55
2024/01/08 02:58:51;;;;;;;4.97;3.27;;;-0.20;66.60;;;1.56;53.22;98011.34;5072650;28;20052;-52
2024/01/08 03:01:19;;;;;;;5.33;3.33;;;-0.10;66.70;;;1.55;53.31;98004.38;5072449;28;20044;-52
2024/01/08 03:03:46;;;;;;;4.70;3.27;;;-0.10;67.90;;;1.58;53.09;98010.28;5072351;28;20044;-51
2024/01/08 03:06:14;;;;;;;4.53;3.27;;;-0.10;67.50;;;1.64;53.40;98011.69;5072310;28;20055;-53
2024/01/08 03:08:42;;;;;;;5.60;3.10;;;-0.10;68.70;;;1.68;53.34;98013.19;5072096;28;20048;-54
2024/01/08 03:11:10;;;;;;;4.70;3.07;;;-0.10;68.10;;;1.71;53.24;98013.00;5071795;28;20493;-53
2024/01/08 03:13:38;;;;;;;4.47;3.40;;;-0.10;67.20;;;1.72;53.04;98016.47;5072007;28;20048;-54
2024/01/08 03:16:06;;;;;;;5.73;3.53;;;-0.10;67.10;;;1.71;53.17;98020.88;5071995;28;20037;-53
2024/01/08 03:18:34;;;;;;;6.10;3.90;;;0.00;65.90;;;1.70;52.89;98019.19;5072250;28;20052;-54
2024/01/08 03:21:06;;;;;;;4.30;2.77;;;0.00;67.70;;;1.73;53.32;98023.41;5071842;28;20045;-54
2024/01/08 03:23:35;;;;;;;4.60;3.37;;;0.00;67.10;;;1.68;52.67;98021.06;5071726;28;20052;-54
2024/01/08 03:26:04;;;;;;;5.53;3.20;;;0.00;66.10;;;1.65;52.69;98016.03;5071792;28;20075;-50
2024/01/08 03:28:32;;;;;;;4.07;3.40;;;0.00;66.20;;;1.64;53.22;98011.69;5071651;28;20127;-55
2024/01/08 03:31:01;;;;;;;5.10;3.30;;;-0.10;66.70;;;1.68;53.19;98022.84;5069966;28;20052;-54
2024/01/08 03:33:29;;;;;;;7.10;3.90;;;-0.10;67.60;;;1.70;52.69;98008.69;5071929;28;20048;-54
2024/01/08 03:35:57;;;;;;;5.80;3.87;;;0.00;67.30;;;1.75;52.72;98008.41;5071884;28;20044;-53
2024/01/08 03:38:25;;;;;;;6.73;3.80;;;0.00;67.10;;;1.76;52.79;98010.06;5071953;28;20048;-52
2024/01/08 03:40:53;;;;;;;5.93;3.73;;;-0.10;67.80;;;1.78;52.54;98013.44;5071573;28;20040;-50
2024/01/08 03:43:22;;;;;;;5.33;3.80;;;-0.10;68.00;;;1.77;52.84;98012.59;5071676;28;20431;-49
2024/01/08 03:45:49;;;;;;;6.93;5.43;;;0.00;68.40;;;1.82;53.23;98016.72;5071709;28;20138;-51
2024/01/08 03:48:17;;;;;;;6.20;4.20;;;0.00;68.70;;;1.80;53.19;98015.97;5071264;28;20408;-49
2024/01/08 03:50:45;;;;;;;5.23;3.93;;;0.00;67.80;;;1.76;53.03;98013.56;5070432;28;20051;-51
2024/01/08 03:53:13;;;;;;;7.43;3.70;;;0.00;67.40;;;1.74;52.48;98006.72;5071161;28;20045;-51
2024/01/08 03:55:41;;;;;;;4.80;3.80;;;-0.10;65.70;;;1.67;52.50;98005.44;5071397;28;20036;-53
2024/01/08 03:58:09;;;;;;;4.77;3.87;;;-0.10;66.70;;;1.67;52.58;98006.25;5071132;28;20040;-52
2024/01/08 04:00:37;;;;;;;4.60;3.47;;;-0.10;66.30;;;1.69;52.79;98006.19;5070252;28;20056;-53
2024/01/08 04:03:05;;;;;;;6.37;3.97;;;-0.10;67.60;;;1.69;52.42;98014.88;5070838;28;20419;-53
2024/01/08 04:05:33;;;;;;;5.57;3.47;;;0.00;66.50;;;1.62;52.53;98005.69;5071184;28;20052;-54
2024/01/08 04:08:01;;;;;;;5.90;3.40;;;-0.10;65.80;;;1.52;52.37;98009.84;5071052;28;20384;-52
2024/01/08 04:10:29;;;;;;;6.17;3.80;;;-0.10;65.80;;;1.47;52.77;98012.75;5069754;28;20381;-55
2024/01/08 04:12:57;;;;;;;4.37;3.50;;;-0.10;65.80;;;1.41;52.21;98015.75;5070935;28;20411;-50
2024/01/08 04:15:24;;;;;;;4.87;3.03;;;-0.10;64.10;;;1.33;52.35;98018.00;5071073;28;20036;-53
2024/01/08 04:17:52;;;;;;;6.90;3.60;;;-0.20;65.80;;;1.32;52.88;98017.19;5071142;28;20067;-53
2024/01/08 04:20:21;;;;;;;6.10;3.93;;;-0.30;66.00;;;1.30;52.68;98012.94;5070639;28;20052;-52
2024/01/08 04:22:50;;;;;;;5.70;3.70;;;-0.30;65.00;;;1.20;52.65;98010.03;5070096;28;20053;-54
2024/01/08 04:25:18;;;;;;;5.10;3.10;;;-0.30;65.90;;;1.17;52.60;98010.25;5070870;28;20044;-52
2024/01/08 04:27:46;;;;;;;4.80;3.47;;;-0.30;65.40;;;1.19;52.74;98026.72;5070902;28;20048;-52
2024/01/08 04:30:15;;;;;;;5.70;3.43;;;-0.30;66.90;;;1.28;52.74;98017.44;5070385;28;20044;-53
2024/01/08 04:32:42;;;;;;;4.63;3.03;;;-0.30;67.20;;;1.31;52.95;98012.00;5070367;28;20036;-54
2024/01/08 04:35:10;;;;;;;5.30;3.30;;;-0.30;66.00;;;1.23;52.91;98020.34;5069263;28;20048;-53
2024/01/08 04:37:39;;;;;;;4.63;3.30;;;-0.30;66.50;;;1.28;52.44;98020.94;5070962;28;20408;-53
2024/01/08 04:40:08;;;;;;;5.50;3.20;;;-0.30;65.50;;;1.28;52.50;98025.31;5070491;28;20053;-54
2024/01/08 04:42:36;;;;;;;4.77;3.40;;;-0.30;66.00;;;1.28;52.75;98020.06;5069614;28;20052;-55
2024/01/08 04:45:04;;;;;;;6.23;2.77;;;-0.20;65.50;;;1.22;52.22;98028.31;5070498;28;20040;-52
2024/01/08 04:47:32;;;;;;;6.13;4.40;;;-0.40;65.20;;;1.23;52.35;98030.84;5066693;28;20040;-52
2024/01/08 04:50:00;;;;;;;5.53;3.47;;;-0.30;67.30;;;1.28;52.04;98031.41;5070346;28;20051;-52
2024/01/08 04:52:28;;;;;;;6.27;3.83;;;-0.30;65.60;;;1.25;52.79;98036.84;5070702;28;20214;-52
2024/01/08 04:54:55;;;;;;;6.57;3.27;;;-0.30;66.70;;;1.23;52.15;98035.25;5070513;28;20051;-53
2024/01/08 04:57:24;;;;;;;3.97;2.53;;;-0.30;65.40;;;1.22;52.45;98034.38;5069043;28;20048;-53
2024/01/08 04:59:52;;;;;;;5.50;3.67;;;-0.40;64.30;;;1.12;52.43;98028.84;5070292;28;20393;-54
2024/01/08 05:02:20;;;;;;;6.93;3.20;;;-0.40;66.20;;;1.10;51.97;98035.97;5070455;28;20055;-54
2024/01/08 05:04:48;;;;;;;4.07;3.33;;;-0.40;64.50;;;1.09;52.48;98041.34;5069177;28;20492;-54
2024/01/08 05:07:16;;;;;;;5.07;3.47;;;-0.40;64.20;;;1.06;52.35;98038.88;5070401;28;20032;-53
2024/01/08 05:09:44;;;;;;;4.07;3.10;;;-0.40;65.40;;;1.13;52.37;98042.84;5069984;28;20047;-53
2024/01/08 05:12:11;;;;;;;5.33;3.60;;;-0.40;65.90;;;1.16;52.00;98040.00;5070265;28;20036;-53
2024/01/08 05:14:39;;;;;;;5.13;3.50;;;-0.40;64.70;;;1.13;52.16;98043.66;5069103;28;20037;-51
2024/01/08 05:17:07;;;;;;;5.17;2.73;;;-0.40;65.50;;;1.22;52.58;98049.28;5070287;28;20044;-54
2024/01/08 05:19:35;;;;;;;5.00;3.27;;;-0.40;65.20;;;1.22;51.94;98049.28;5070482;28;20420;-52
2024/01/08 05:22:03;;;;;;;6.30;3.90;;;-0.40;64.80;;;1.24;51.65;98055.28;5070417;28;20051;-53
2024/01/08 05:24:31;;;;;;;6.63;3.40;;;-0.40;64.70;;;1.25;52.55;98055.19;5068782;28;20049;-51
2024/01/08 05:26:59;;;;;;;4.67;3.30;;;-0.30;64.20;;;1.24;52.22;98061.41;5070291;28;20051;-53
2024/01/08 05:29:26;;;;;;;6.30;3.73;;;-0.30;63.90;;;1.25;51.54;98055.19;5070318;28;20150;-52
2024/01/08 05:31:54;;;;;;;10.67;4.47;;;-0.30;63.60;;;1.28;52.40;98049.78;5068955;28;20037;-50
2024/01/08 05:34:22;;;;;;;14.67;7.23;;;-0.30;63.70;;;1.37;51.99;98053.59;5072178;28;20029;-54
2024/01/08 05:36:50;;;;;;;21.63;11.00;;;-0.30;65.10;;;1.41;52.11;98051.66;5073931;28;20043;-54
2024/01/08 05:39:18;;;;;;;9.60;5.90;;;-0.40;65.60;;;1.46;51.72;98058.31;5073934;28;20056;-53
2024/01/08 05:41:46;;;;;;;8.43;4.80;;;-0.40;65.90;;;1.48;51.87;98056.44;5073800;28;20492;-51
2024/01/08 05:44:14;;;;;;;8.73;5.20;;;-0.40;64.10;;;1.48;52.02;98063.47;5073569;28;20051;-51
2024/01/08 05:46:43;;;;;;;6.43;4.73;;;-0.40;65.10;;;1.48;51.28;98061.66;5072414;28;20056;-53
2024/01/08 05:49:13;;;;;;;10.50;6.13;;;-0.30;64.90;;;1.47;51.20;98059.97;5071887;28;20048;-54
2024/01/08 05:51:41;;;;;;;7.87;5.33;;;-0.30;64.30;;;1.47;51.32;98049.47;5074034;28;20052;-51
2024/01/08 05:54:09;;;;;;;7.63;5.83;;;-0.30;64.30;;;1.46;51.65;98062.72;5073827;28;20043;-52
2024/01/08 05:56:37;;;;;;;11.40;6.27;;;-0.30;65.00;;;1.50;52.13;98058.97;5064702;28;20049;-52
2024/01/08 05:59:07;;;;;;;8.30;5.20;;;-0.30;66.10;;;1.54;51.41;98057.84;5073615;28;20419;-53
2024/01/08 06:01:36;;;;;;;9.77;5.30;;;-0.30;65.60;;;1.58;52.10;98059.31;5066104;28;20045;-53
2024/01/08 06:04:04;;;;;;;8.43;5.47;;;-0.30;66.60;;;1.60;51.50;98061.84;5073592;28;20041;-49
2024/01/08 06:06:32;;;;;;;9.10;5.23;;;-0.40;65.50;;;1.58;51.45;98068.03;5071573;28;20523;-52
2024/01/08 06:09:00;;;;;;;9.90;5.90;;;-0.40;66.40;;;1.59;51.98;98066.28;5073749;28;20543;-50
2024/01/08 06:11:28;;;;;;;6.90;5.17;;;-0.40;65.80;;;1.58;51.55;98068.03;5073012;28;20059;-54
2024/01/08 06:13:56;;;;;;;8.57;6.07;;;-0.40;66.60;;;1.59;51.35;98068.91;5073380;28;20040;-52
2024/01/08 06:16:24;;;;;;;6.27;4.60;;;-0.40;65.90;;;1.59;51.35;98071.53;5071610;28;20499;-52
2024/01/08 06:18:51;;;;;;;9.87;5.53;;;-0.40;66.10;;;1.61;51.80;98072.28;5073574;28;20450;-54
2024/01/08 06:21:19;;;;;;;5.97;5.03;;;-0.30;66.60;;;1.63;51.24;98077.41;5073109;28;20048;-52
2024/01/08 06:23:47;;;;;;;8.87;6.40;;;-0.30;65.80;;;1.62;51.49;98073.94;5073044;28;20047;-49
2024/01/08 06:26:16;;;;;;;10.00;6.93;;;-0.30;65.40;;;1.62;51.45;98081.81;5073310;28;20044;-54
2024/01/08 06:28:44;;;;;;;7.43;5.00;;;-0.30;66.10;;;1.56;50.91;98077.78;5073267;28;20083;-52
2024/01/08 06:31:15;;;;;;;7.77;5.40;;;-0.30;64.30;;;1.54;51.26;98071.78;5073030;28;20048;-54
2024/01/08 06:33:43;;;;;;;10.23;6.07;;;-0.30;65.80;;;1.55;51.49;98070.88;5072253;28;20044;-51
2024/01/08 06:36:11;;;;;;;6.63;4.77;;;-0.30;64.80;;;1.54;51.50;98071.78;5071277;28;20496;-51
2024/01/08 06:38:39;;;;;;;9.53;5.67;;;-0.40;65.20;;;1.56;51.40;98074.31;5072829;28;20045;-52
2024/01/08 06:41:07;;;;;;;9.00;4.57;;;-0.30;65.40;;;1.57;51.27;98076.88;5072475;28;20040;-51
2024/01/08 06:43:35;;;;;;;7.70;4.70;;;-0.40;66.60;;;1.62;51.62;98075.72;5072643;28;20447;-53
2024/01/08 06:46:05;;;;;;;6.77;4.80;;;-0.40;66.60;;;1.60;51.36;98073.19;5072680;28;20052;-53
2024/01/08 06:48:32;;;;;;;6.70;3.93;;;-0.40;66.80;;;1.61;51.47;98076.66;5071406;28;20048;-53
2024/01/08 06:51:01;;;;;;;6.17;4.10;;;-0.40;67.10;;;1.60;51.02;98069.72;5070887;28;20400;-54
2024/01/08 06:53:29;;;;;;;7.03;4.20;;;-0.40;65.20;;;1.57;51.65;98073.38;5071847;28;20500;-54
2024/01/08 06:55:57;;;;;;;9.07;4.70;;;-0.40;65.70;;;1.58;51.40;98075.06;5072664;28;20419;-54
2024/01/08 06:58:25;;;;;;;6.27;4.47;;;-0.40;65.60;;;1.58;51.43;98075.06;5072726;28;20052;-53
2024/01/08 07:00:52;;;;;;;7.77;4.77;;;-0.40;66.30;;;1.58;51.09;98086.41;5071349;28;20044;-51
2024/01/08 07:03:20;;;;;;;9.37;4.70;;;-0.40;66.70;;;1.61;51.50;98088.00;5072345;28;20044;-54
2024/01/08 07:05:48;;;;;;;17.47;8.30;;;-0.50;66.00;;;1.58;51.07;98081.16;5072686;28;20044;-54
2024/01/08 07:08:17;;;;;;;14.93;7.80;;;-0.50;66.80;;;1.57;51.69;98078.63;5072489;28;20044;-54
2024/01/08 07:10:45;;;;;;;12.37;6.90;;;-0.50;66.00;;;1.58;51.28;98083.78;5072131;28;20543;-53
2024/01/08 07:13:17;;;;;;;9.13;5.67;;;-0.40;66.70;;;1.57;51.48;98089.97;5072434;28;20037;-52
2024/01/08 07:15:48;;;;;;;8.77;5.33;;;-0.50;66.10;;;1.55;51.15;98085.75;5072335;28;20063;-54
2024/01/08 07:18:17;;;;;;;7.57;4.90;;;-0.50;66.50;;;1.51;51.00;98090.38;5072387;28;20040;-53
2024/01/08 07:20:47;;;;;;;7.10;4.90;;;-0.60;66.80;;;1.53;51.40;98092.88;5071942;28;20052;-54
2024/01/08 07:23:14;;;;;;;8.97;5.10;;;-0.50;67.20;;;1.54;51.42;98090.16;5072074;28;20049;-53
2024/01/08 07:25:43;;;;;;;8.80;5.23;;;-0.50;67.40;;;1.54;51.09;98084.06;5072268;28;20040;-53
2024/01/08 07:28:11;;;;;;;9.37;6.10;;;-0.50;66.20;;;1.53;51.24;98095.50;5072151;28;20052;-54
2024/01/08 07:30:39;;;;;;;10.00;5.57;;;-0.50;66.40;;;1.54;51.60;98097.19;5071508;28;20044;-53
2024/01/08 07:33:07;;;;;;;11.03;6.53;;;-0.50;67.00;;;1.53;51.60;98080.63;5071494;28;20041;-51
2024/01/08 07:35:36;;;;;;;9.37;6.33;;;-0.50;66.40;;;1.55;51.69;98097.09;5071503;28;20040;-54
2024/01/08 07:38:04;;;;;;;8.47;5.63;;;-0.40;66.20;;;1.57;51.55;98094.38;5071769;28;20048;-53
2024/01/08 07:40:32;;;;;;;8.50;5.77;;;-0.50;66.30;;;1.60;51.58;98098.59;5071418;28;20057;-50
2024/01/08 07:43:00;;;;;;;7.23;4.53;;;-0.40;65.70;;;1.60;51.79;98096.81;5070078;28;20041;-53
2024/01/08 07:45:28;;;;;;;8.57;4.60;;;-0.40;65.50;;;1.62;51.03;98096.72;5067505;28;20523;-53
2024/01/08 07:47:57;;;;;;;9.97;5.10;;;-0.40;66.40;;;1.63;51.60;98103.66;5064915;28;20044;-53
2024/01/08 07:50:25;;;;;;;7.60;4.77;;;-0.40;65.70;;;1.63;51.50;98103.66;5058019;28;20079;-53
2024/01/08 07:52:54;;;;;;;7.93;5.57;;;-0.40;66.50;;;1.64;51.60;98108.81;5063205;28;20036;-52
2024/01/08 07:55:22;;;;;;;7.40;5.73;;;-0.40;66.00;;;1.63;51.08;98108.91;5062756;28;20048;-54
2024/01/08 07:57:50;;;;;;;11.43;7.50;;;-0.40;65.80;;;1.63;51.17;98103.66;5069373;28;20037;-52
2024/01/08 08:00:20;;;;;;;16.40;8.17;;;-0.40;66.50;;;1.67;51.17;98116.50;5062515;28;20048;-54
2024/01/08 08:02:48;;;;;;;13.10;7.80;;;-0.40;66.40;;;1.69;51.57;98119.03;5063658;28;20420;-52
2024/01/08 08:05:16;;;;;;;15.17;9.50;;;-0.30;66.50;;;1.69;51.26;98117.25;5068213;28;20420;-52
2024/01/08 08:07:44;;;;;;;14.90;8.70;;;-0.40;65.70;;;1.69;51.06;98119.88;5071246;28;20045;-54
2024/01/08 08:10:12;;;;;;;10.80;6.43;;;-0.30;65.10;;;1.70;51.19;98125.97;5070963;28;20052;-51
2024/01/08 08:12:40;;;;;;;6.23;4.97;;;-0.30;65.50;;;1.69;51.01;98122.50;5069586;28;20052;-53
2024/01/08 08:15:10;;;;;;;8.50;5.10;;;-0.40;65.30;;;1.69;50.66;98124.28;5071258;28;20043;-54
2024/01/08 08:17:42;;;;;;;9.20;6.17;;;-0.30;64.40;;;1.69;50.93;98124.28;5071060;28;20048;-54
2024/01/08 08:20:10;;;;;;;10.37;6.03;;;-0.30;64.00;;;1.65;50.68;98121.00;5071097;28;20056;-55
2024/01/08 08:22:39;;;;;;;13.20;5.60;;;-0.30;63.70;;;1.63;50.61;98129.91;5069423;28;20063;-51
2024/01/08 08:25:11;;;;;;;8.60;4.87;;;-0.30;63.50;;;1.63;50.68;98120.25;5071335;28;20051;-50
2024/01/08 08:27:39;;;;;;;6.67;4.37;;;-0.30;64.10;;;1.65;50.92;98121.00;5070886;28;20059;-52
2024/01/08 08:30:11;;;;;;;5.67;4.03;;;-0.30;64.60;;;1.67;50.88;98124.38;5070698;28;20052;-53
2024/01/08 08:32:39;;;;;;;14.23;4.97;;;-0.30;64.10;;;1.68;50.50;98122.59;5069389;28;20055;-52
2024/01/08 08:35:10;;;;;;;8.93;4.60;;;-0.30;63.10;;;1.70;50.70;98120.72;5071107;28;20428;-53
2024/01/08 08:37:38;;;;;;;9.20;5.47;;;-0.20;63.20;;;1.73;50.45;98129.25;5071082;28;20037;-50
2024/01/08 08:40:20;;;;;;;9.90;4.90;;;-0.20;63.40;;;1.72;50.04;98138.06;5070635;28;20055;-53
2024/01/08 08:42:48;;;;;;;16.50;8.97;;;-0.20;63.10;;;1.75;50.94;98134.41;5069512;28;20041;-54
2024/01/08 08:45:17;;;;;;;18.77;8.97;;;-0.20;63.90;;;1.77;50.56;98127.28;5070894;28;20041;-53
2024/01/08 08:47:46;;;;;;;12.80;7.53;;;-0.20;64.50;;;1.75;50.17;98139.66;5069547;28;20071;-55
2024/01/08 08:50:14;;;;;;;11.90;5.57;;;-0.30;62.80;;;1.72;50.76;98130.19;5070369;28;20044;-54
2024/01/08 08:52:44;;;;;;;10.33;5.40;;;-0.30;63.60;;;1.74;50.04;98144.03;5068783;28;20044;-53
2024/01/08 08:55:12;;;;;;;11.03;5.37;;;-0.30;63.30;;;1.73;50.30;98144.16;5070712;28;20047;-53
2024/01/08 08:57:41;;;;;;;10.13;4.87;;;-0.30;63.10;;;1.76;50.27;98142.19;5054297;28;20975;-52
2024/01/08 09:00:10;;;;;;;8.03;5.10;;;-0.20;64.50;;;1.77;50.32;98145.66;5062072;28;20044;-53
2024/01/08 09:02:40;;;;;;;8.87;4.67;;;-0.20;62.80;;;1.76;49.92;98152.69;5065749;28;20492;-51
2024/01/08 09:05:08;;;;;;;13.10;6.33;;;-0.20;62.40;;;1.79;50.61;98156.91;5065890;28;20055;-51
2024/01/08 09:07:36;;;;;;;10.93;5.93;;;-0.20;63.70;;;1.78;50.05;98157.84;5060703;28;20037;-54
2024/01/08 09:10:05;;;;;;;8.63;5.17;;;-0.20;63.10;;;1.79;50.18;98153.44;5066686;28;20048;-53
2024/01/08 09:12:33;;;;;;;7.80;3.87;;;-0.20;64.10;;;1.80;50.57;98152.50;5064873;28;20515;-53
2024/01/08 09:15:00;;;;;;;6.40;3.63;;;-0.20;63.20;;;1.79;50.57;98154.28;5065118;28;20037;-55
2024/01/08 09:17:30;;;;;;;7.77;4.00;;;-0.20;63.40;;;1.78;49.98;98165.72;5064258;28;20039;-54
2024/01/08 09:19:58;;;;;;;10.23;4.20;;;-0.20;63.00;;;1.77;50.44;98172.75;5064501;28;20491;-51
2024/01/08 09:22:26;;;;;;;7.90;3.90;;;-0.20;62.10;;;1.81;50.41;98180.44;5064954;28;20048;-52
2024/01/08 09:24:54;;;;;;;8.23;4.60;;;-0.20;64.10;;;1.80;50.27;98176.13;5067234;28;20052;-51
2024/01/08 09:27:23;;;;;;;6.43;3.83;;;-0.20;63.10;;;1.80;50.05;98179.59;5065919;28;20041;-52
2024/01/08 09:29:51;;;;;;;5.47;3.83;;;-0.20;62.30;;;1.77;49.78;98179.78;5064893;28;20057;-52
2024/01/08 09:32:18;;;;;;;6.87;4.00;;;-0.20;62.10;;;1.78;50.19;98189.34;5065524;28;20080;-52
2024/01/08 09:34:46;;;;;;;7.53;3.83;;;-0.10;62.10;;;1.80;49.96;98182.22;5063511;28;20036;-50
2024/01/08 09:37:14;;;;;;;7.70;3.57;;;-0.10;62.40;;;1.76;49.98;98178.97;5064250;28;20071;-54
2024/01/08 09:39:42;;;;;;;7.03;4.73;;;-0.20;62.80;;;1.79;50.39;98183.16;5069484;28;20500;-51
2024/01/08 09:42:10;;;;;;;6.17;4.30;;;-0.20;63.00;;;1.78;49.59;98186.72;5067555;28;20052;-53
2024/01/08 09:44:46;;;;;;;6.40;4.47;;;-0.20;62.10;;;1.80;50.05;98184.00;5069536;28;20060;-50
2024/01/08 09:47:16;;;;;;;6.93;4.23;;;-0.10;61.90;;;1.82;49.93;98187.38;5056584;28;20484;-54
2024/01/08 09:49:45;;;;;;;8.27;4.27;;;-0.10;62.10;;;1.83;49.70;98186.47;5072592;28;20048;-52
2024/01/08 09:52:14;;;;;;;7.57;4.17;;;-0.10;61.30;;;1.79;50.03;98184.97;5071721;28;20039;-50
2024/01/08 09:54:43;;;;;;;5.97;3.83;;;-0.10;62.40;;;1.81;49.85;98189.16;5069635;28;20048;-52
2024/01/08 09:57:11;;;;;;;8.00;4.87;;;-0.10;61.60;;;1.84;50.07;98180.25;5073517;28;20040;-55
2024/01/08 09:59:39;;;;;;;12.10;7.13;;;-0.10;62.10;;;1.85;49.58;98188.03;5072295;28;20045;-51
2024/01/08 10:02:16;;;;;;;9.73;6.43;;;-0.10;61.10;;;1.86;49.30;98189.75;5073406;28;20044;-54
2024/01/08 10:04:44;;;;;;;7.33;5.20;;;-0.10;60.30;;;1.84;49.28;98186.38;5073434;28;20044;-50
2024/01/08 10:07:13;;;;;;;6.37;4.53;;;-0.10;61.20;;;1.84;49.95;98188.13;5073659;28;20048;-50
2024/01/08 10:09:41;;;;;;;7.37;4.47;;;-0.10;63.10;;;1.86;49.92;98183.63;5073380;28;20059;-52
2024/01/08 10:12:10;;;;;;;6.63;4.63;;;-0.10;62.60;;;1.88;50.20;98187.88;5073579;28;20063;-54
2024/01/08 10:14:39;;;;;;;7.23;5.03;;;-0.10;63.60;;;1.92;49.81;98184.09;5073421;28;20047;-54
2024/01/08 10:17:07;;;;;;;14.07;6.07;;;0.00;62.90;;;1.96;49.79;98188.22;5073344;28;20033;-53
2024/01/08 10:19:35;;;;;;;13.30;6.67;;;0.00;61.90;;;2.00;49.82;98188.91;5072492;28;20040;-51
2024/01/08 10:22:12;;;;;;;12.33;6.57;;;0.00;62.50;;;2.01;49.42;98187.09;5073085;28;20048;-52
2024/01/08 10:24:43;;;;;;;13.97;6.30;;;0.00;63.40;;;2.00;49.98;98183.66;5073030;28;20048;-53
2024/01/08 10:27:12;;;;;;;8.80;5.07;;;0.00;63.10;;;2.01;49.46;98173.97;5071846;28;20400;-50
2024/01/08 10:29:41;;;;;;;8.17;4.30;;;-0.10;63.70;;;2.00;49.87;98188.03;5071785;28;20048;-50